Time;durP1;ratioP1;P1;durP2;ratioP2;P2;SDS_P1;SDS_P2;PMS_P1;PMS_P2;Temp;Humidity;BMP_temperature;BMP_pressure;BME280_temperature;BME280_humidity;BME280_pressure;Samples;Min_cycle;Max_cycle;Signal;HPM_P1;HPM_P2
2021/08/07 00:01:03;;;;;;;4.33;0.98;;;;;;;19.32;66.83;100329.28;1682305;85;27534;-62
2021/08/07 00:03:30;;;;;;;0.90;0.90;;;;;;;19.34;66.87;100331.28;1708895;83;25738;-62
2021/08/07 00:05:57;;;;;;;9.83;1.10;;;;;;;19.37;66.88;100339.89;1708190;83;25715;-62
2021/08/07 00:08:25;;;;;;;3.15;1.10;;;;;;;19.38;66.52;100340.72;1708492;83;25833;-62
2021/08/07 00:10:52;;;;;;;4.53;1.05;;;;;;;19.36;66.62;100342.30;1709564;83;25740;-61
2021/08/07 00:13:18;;;;;;;3.12;0.80;;;;;;;19.37;66.69;100348.08;1703533;83;27462;-62
2021/08/07 00:15:45;;;;;;;2.45;1.25;;;;;;;19.38;66.79;100344.81;1690153;83;25778;-62
2021/08/07 00:18:12;;;;;;;0.93;0.70;;;;;;;19.40;66.87;100352.27;1701918;83;25727;-61
2021/08/07 00:20:39;;;;;;;1.82;1.00;;;;;;;19.27;65.57;100354.43;1703586;84;26952;-62
2021/08/07 00:23:06;;;;;;;4.12;1.22;;;;;;;19.13;65.58;100351.34;1684153;84;25801;-62
2021/08/07 00:25:33;;;;;;;2.20;0.98;;;;;;;19.04;65.69;100353.38;1713989;83;28252;-62
2021/08/07 00:28:00;;;;;;;1.87;1.00;;;;;;;18.97;66.00;100360.16;1704411;83;25827;-62
2021/08/07 00:30:27;;;;;;;5.15;1.07;;;;;;;18.97;66.08;100351.16;1714996;83;25858;-62
2021/08/07 00:32:55;;;;;;;3.77;1.00;;;;;;;18.99;66.25;100353.16;1697801;84;25768;-61
2021/08/07 00:35:23;;;;;;;8.10;1.20;;;;;;;19.01;66.24;100347.83;1737322;82;25486;-61
2021/08/07 00:37:51;;;;;;;2.83;0.88;;;;;;;19.00;66.61;100352.95;1737196;81;27449;-61
2021/08/07 00:40:19;;;;;;;4.78;1.32;;;;;;;18.96;66.59;100357.64;1737244;82;25861;-62
2021/08/07 00:42:48;;;;;;;6.85;1.25;;;;;;;18.91;66.69;100356.86;1737023;82;25788;-62
2021/08/07 00:45:19;;;;;;;5.62;1.17;;;;;;;18.89;66.85;100361.16;1736687;82;26210;-62
2021/08/07 00:47:47;;;;;;;2.37;1.10;;;;;;;18.88;67.13;100373.09;1699397;83;25679;-61
2021/08/07 00:50:15;;;;;;;3.33;0.90;;;;;;;18.88;67.40;100373.09;1677795;85;27513;-62
2021/08/07 00:52:43;;;;;;;3.08;1.10;;;;;;;18.85;68.17;100380.84;1680873;85;25963;-62
2021/08/07 00:55:12;;;;;;;6.40;1.55;;;;;;;18.77;67.75;100384.05;1681446;85;25561;-62
2021/08/07 00:57:39;;;;;;;8.40;1.00;;;;;;;18.73;68.01;100381.38;1680495;85;25738;-62
2021/08/07 01:00:07;;;;;;;5.47;1.22;;;;;;;18.73;68.08;100386.84;1677877;85;25793;-62
2021/08/07 01:02:35;;;;;;;1.40;0.82;;;;;;;18.75;67.92;100383.39;1728426;82;27465;-62
2021/08/07 01:05:21;;;;;;;1.67;0.85;;;;;;;18.77;67.78;100384.05;1777111;79;26285;-61
2021/08/07 01:08:00;;;;;;;0.93;0.80;;;;;;;18.80;67.67;100389.61;1777367;79;25793;-61
2021/08/07 01:11:02;;;;;;;6.37;0.95;;;;;;;18.83;67.55;100404.71;1777614;80;25739;-62
2021/08/07 01:13:50;;;;;;;3.25;1.00;;;;;;;18.82;67.33;100410.70;1777365;80;25809;-62
2021/08/07 01:16:30;;;;;;;3.35;1.30;;;;;;;18.75;67.32;100410.64;1771845;80;28332;-64
2021/08/07 01:19:01;;;;;;;1.17;0.90;;;;;;;18.75;67.65;100412.51;1765784;80;25800;-62
2021/08/07 01:21:37;;;;;;;6.45;1.00;;;;;;;18.76;67.72;100416.42;1754863;81;25870;-62
2021/08/07 01:24:25;;;;;;;4.47;1.20;;;;;;;18.70;67.46;100409.02;1720650;83;26532;-62
2021/08/07 01:27:10;;;;;;;2.58;1.55;;;;;;;18.55;67.31;100415.09;1721741;83;26363;-62
2021/08/07 01:29:37;;;;;;;;;;;;;;;18.26;67.57;100415.58;1724269;83;27477;-62
2021/08/07 01:32:06;;;;;;;7.20;0.90;;;;;;;18.01;68.56;100427.41;1721915;83;25800;-61
2021/08/07 01:34:38;;;;;;;4.45;1.30;;;;;;;17.93;68.75;100418.80;1733766;82;25762;-61
2021/08/07 01:37:08;;;;;;;2.27;1.02;;;;;;;17.89;68.64;100419.71;1747836;80;25808;-62
2021/08/07 01:39:43;;;;;;;2.17;1.25;;;;;;;17.80;68.90;100420.33;1774635;80;25688;-62
2021/08/07 01:42:10;;;;;;;3.85;1.30;;;;;;;17.75;68.99;100417.36;1777638;79;27425;-62
2021/08/07 01:44:38;;;;;;;2.77;1.10;;;;;;;17.70;69.52;100423.91;1737822;80;25815;-62
2021/08/07 01:47:29;;;;;;;2.80;1.05;;;;;;;17.61;69.80;100419.62;1777599;80;25685;-62
2021/08/07 01:50:29;;;;;;;5.37;1.72;;;;;;;17.53;70.02;100421.39;1713012;83;25873;-62
2021/08/07 01:53:03;;;;;;;4.25;1.02;;;;;;;17.43;70.60;100422.73;1712018;83;25773;-62
2021/08/07 01:55:58;;;;;;;4.25;1.42;;;;;;;17.43;70.56;100434.47;1712948;83;27465;-61
2021/08/07 01:58:36;;;;;;;1.32;1.07;;;;;;;17.52;70.56;100443.34;1646353;87;25771;-62
2021/08/07 02:01:05;;;;;;;2.30;1.22;;;;;;;17.61;70.33;100450.36;1646191;87;25805;-61
2021/08/07 02:03:34;;;;;;;1.85;1.30;;;;;;;17.73;70.32;100456.68;1717122;80;26317;-62
2021/08/07 02:06:02;;;;;;;3.20;1.87;;;;;;;17.81;70.28;100463.36;1777528;79;25740;-61
2021/08/07 02:08:30;;;;;;;4.67;1.25;;;;;;;17.87;70.18;100462.59;1777842;80;28118;-61
2021/08/07 02:10:59;;;;;;;7.15;1.20;;;;;;;17.93;70.32;100465.89;1777339;80;25721;-62
2021/08/07 02:13:26;;;;;;;3.67;1.27;;;;;;;17.94;70.03;100465.39;1747583;80;25681;-61
2021/08/07 02:15:56;;;;;;;4.85;1.15;;;;;;;17.97;70.22;100474.58;1773083;80;26467;-66
2021/08/07 02:18:27;;;;;;;6.17;1.10;;;;;;;18.03;70.04;100478.38;1771765;80;25709;-65
2021/08/07 02:20:55;;;;;;;5.28;1.20;;;;;;;18.06;69.99;100481.59;1772624;80;28283;-62
2021/08/07 02:23:24;;;;;;;7.37;3.62;;;;;;;18.10;69.95;100488.31;1707617;83;25852;-62
2021/08/07 02:26:01;;;;;;;2.62;1.10;;;;;;;18.13;69.96;100494.75;1728366;83;25455;-61
2021/08/07 02:28:37;;;;;;;3.85;1.02;;;;;;;18.09;69.61;100505.68;1727803;82;25881;-63
2021/08/07 02:31:06;;;;;;;12.33;1.40;;;;;;;18.09;69.71;100519.82;1728149;82;25752;-62
2021/08/07 02:33:37;;;;;;;6.00;1.55;;;;;;;18.09;69.74;100528.81;1728506;82;27238;-61
2021/08/07 02:36:07;;;;;;;3.30;1.30;;;;;;;18.06;69.94;100530.58;1716048;81;25791;-62
2021/08/07 02:38:35;;;;;;;4.42;1.32;;;;;;;18.05;70.10;100527.53;1751343;81;25716;-62
2021/08/07 02:41:03;;;;;;;4.92;1.72;;;;;;;18.07;70.13;100540.41;1719829;81;25845;-62
2021/08/07 02:43:32;;;;;;;6.90;1.72;;;;;;;18.10;70.08;100537.31;1750869;81;25767;-62
2021/08/07 02:46:00;;;;;;;8.73;1.90;;;;;;;18.13;70.04;100534.72;1751284;81;28119;-62
2021/08/07 02:48:29;;;;;;;6.10;1.55;;;;;;;18.15;70.12;100536.20;1751344;81;25802;-62
2021/08/07 02:50:59;;;;;;;4.50;1.67;;;;;;;18.18;70.10;100538.22;1711603;82;25800;-62
2021/08/07 02:53:28;;;;;;;12.55;1.57;;;;;;;18.19;70.10;100532.61;1710813;83;25794;-62
2021/08/07 02:55:56;;;;;;;8.10;0.98;;;;;;;18.19;70.02;100540.78;1680583;83;25965;-61
2021/08/07 02:58:25;;;;;;;2.65;1.00;;;;;;;18.18;70.08;100545.89;1710750;83;28271;-62
2021/08/07 03:00:53;;;;;;;3.92;1.00;;;;;;;18.15;69.99;100547.62;1710912;83;25801;-62
2021/08/07 03:03:21;;;;;;;9.48;1.40;;;;;;;18.13;69.99;100555.13;1710641;83;25762;-62
2021/08/07 03:05:48;;;;;;;5.50;1.75;;;;;;;18.13;70.08;100557.36;1741203;80;25753;-61
2021/08/07 03:08:15;;;;;;;2.10;1.25;;;;;;;18.09;69.77;100568.28;1777460;80;26111;-62
2021/08/07 03:10:44;;;;;;;2.12;1.00;;;;;;;18.07;69.85;100567.62;1777455;79;28755;-62
2021/08/07 03:13:13;;;;;;;3.10;1.30;;;;;;;18.08;70.00;100567.95;1777113;80;25952;-62
2021/08/07 03:15:40;;;;;;;4.97;1.50;;;;;;;18.11;69.97;100570.80;1771671;80;25749;-62
2021/08/07 03:18:07;;;;;;;10.23;1.45;;;;;;;18.06;69.74;100563.74;1767309;81;25838;-61
2021/08/07 03:20:35;;;;;;;12.15;1.50;;;;;;;18.06;69.87;100581.44;1733501;82;25706;-61
2021/08/07 03:23:07;;;;;;;6.87;1.45;;;;;;;18.09;70.03;100587.88;1673814;83;27470;-62
2021/08/07 03:25:36;;;;;;;4.60;1.82;;;;;;;18.10;69.86;100586.84;1741490;81;25900;-61
2021/08/07 03:28:07;;;;;;;10.50;2.65;;;;;;;18.08;69.92;100595.17;1741742;82;25683;-62
2021/08/07 03:30:34;;;;;;;4.85;1.20;;;;;;;18.09;69.58;100597.40;1741567;82;26482;-62
2021/08/07 03:33:01;;;;;;;4.83;1.57;;;;;;;18.06;69.56;100599.13;1742008;82;25919;-62
2021/08/07 03:35:28;;;;;;;2.72;2.08;;;;;;;18.07;69.38;100599.45;1761024;80;27464;-62
2021/08/07 03:37:56;;;;;;;6.03;1.87;;;;;;;18.04;69.39;100599.33;1777367;80;25798;-62
2021/08/07 03:40:23;;;;;;;3.58;1.82;;;;;;;18.00;69.48;100602.09;1777516;80;25709;-62
2021/08/07 03:42:53;;;;;;;15.50;2.27;;;;;;;17.97;69.41;100603.31;1777383;80;26739;-65
2021/08/07 03:45:26;;;;;;;4.50;1.70;;;;;;;17.91;69.38;100608.13;1777466;80;26042;-63
2021/08/07 03:48:07;;;;;;;7.95;1.77;;;;;;;17.83;69.60;100608.23;1775604;80;26925;-64
2021/08/07 03:50:39;;;;;;;5.70;1.50;;;;;;;17.78;69.84;100610.66;1775305;80;25785;-62
2021/08/07 03:53:13;;;;;;;6.07;2.17;;;;;;;17.77;70.02;100613.91;1777317;80;25433;-62
2021/08/07 03:55:56;;;;;;;;;;;;;;;;;;;;;
2021/08/07 04:01:10;;;;;;;6.35;1.40;;;;;;;17.61;70.49;100620.89;1729508;80;28383;-63
2021/08/07 04:03:38;;;;;;;3.72;1.92;;;;;;;17.59;70.47;100623.78;1776996;80;25765;-64
2021/08/07 04:06:07;;;;;;;3.95;2.12;;;;;;;17.60;70.63;100621.92;1775863;80;25881;-60
2021/08/07 04:08:36;;;;;;;8.98;1.70;;;;;;;17.63;70.85;100623.75;1772197;80;25806;-61
2021/08/07 04:11:02;;;;;;;9.83;2.08;;;;;;;17.72;70.92;100631.82;1772126;80;25753;-62
2021/08/07 04:13:32;;;;;;;7.70;2.00;;;;;;;17.78;70.99;100632.42;1736617;81;27642;-62
2021/08/07 04:16:01;;;;;;;6.97;1.77;;;;;;;17.84;70.87;100644.77;1757865;81;25676;-62
2021/08/07 04:18:27;;;;;;;3.60;1.75;;;;;;;17.93;70.78;100646.03;1770568;80;25805;-61
2021/08/07 04:20:55;;;;;;;13.78;1.75;;;;;;;17.91;70.33;100650.31;1771682;80;25758;-62
2021/08/07 04:23:23;;;;;;;6.83;1.55;;;;;;;17.93;70.63;100644.14;1723401;83;25842;-62
2021/08/07 04:25:51;;;;;;;2.25;1.47;;;;;;;17.98;70.50;100654.50;1723452;83;28203;-62
2021/08/07 04:28:19;;;;;;;9.40;2.75;;;;;;;18.08;70.42;100661.87;1722996;82;25868;-62
2021/08/07 04:30:48;;;;;;;9.80;3.30;;;;;;;18.17;70.37;100676.73;1723572;82;25770;-62
2021/08/07 04:33:16;;;;;;;13.50;2.62;;;;;;;18.22;70.06;100673.78;1758546;80;53513;-62
2021/08/07 04:35:45;;;;;;;11.53;2.67;;;;;;;18.26;69.76;100675.61;1772244;80;25710;-62
2021/08/07 04:38:14;;;;;;;8.20;2.45;;;;;;;18.26;69.53;100684.64;1771735;80;28258;-62
2021/08/07 04:40:41;;;;;;;7.55;2.83;;;;;;;18.23;69.47;100683.64;1772104;80;25819;-62
2021/08/07 04:43:09;;;;;;;11.90;2.25;;;;;;;18.19;69.40;100690.52;1771564;80;25768;-62
2021/08/07 04:45:37;;;;;;;12.65;3.00;;;;;;;18.12;69.44;100688.19;1772388;80;26440;-62
2021/08/07 04:48:07;;;;;;;9.75;2.60;;;;;;;18.15;69.53;100690.02;1772285;80;25709;-63
2021/08/07 04:50:39;;;;;;;9.70;2.58;;;;;;;18.21;69.48;100691.15;1771856;80;28065;-63
2021/08/07 04:53:07;;;;;;;9.10;2.50;;;;;;;18.27;69.30;100683.61;1771741;80;25780;-62
2021/08/07 04:55:36;;;;;;;6.75;2.30;;;;;;;18.30;69.21;100685.09;1772237;81;25708;-62
2021/08/07 04:58:04;;;;;;;7.87;2.62;;;;;;;18.34;69.17;100689.65;1772165;81;26397;-64
2021/08/07 05:00:32;;;;;;;12.00;2.30;;;;;;;18.32;69.25;100686.27;1756528;80;25816;-61
2021/08/07 05:03:00;;;;;;;4.10;2.00;;;;;;;18.29;69.27;100676.59;1771977;81;28453;-61
2021/08/07 05:05:29;;;;;;;9.73;2.55;;;;;;;18.26;69.47;100690.08;1771812;81;25734;-61
2021/08/07 05:07:56;;;;;;;11.60;2.75;;;;;;;18.24;69.83;100694.86;1772365;81;25456;-62
2021/08/07 05:10:24;;;;;;;11.97;2.10;;;;;;;18.25;69.58;100704.73;1771931;80;25814;-62
2021/08/07 05:12:51;;;;;;;5.03;3.00;;;;;;;18.26;69.72;100707.78;1772136;80;25598;-62
2021/08/07 05:15:18;;;;;;;5.28;2.67;;;;;;;18.30;69.46;100706.88;1769648;80;27468;-62
2021/08/07 05:17:45;;;;;;;10.78;2.08;;;;;;;18.28;69.26;100704.86;1761485;81;25815;-61
2021/08/07 05:20:12;;;;;;;11.18;2.87;;;;;;;18.30;69.27;100703.62;1761852;80;25789;-62
2021/08/07 05:22:39;;;;;;;2.72;1.90;;;;;;;18.35;69.28;100698.98;1707967;82;26482;-62
2021/08/07 05:25:08;;;;;;;8.78;1.90;;;;;;;18.38;68.74;100688.22;1722454;83;25764;-62
2021/08/07 05:27:36;;;;;;;8.88;2.30;;;;;;;18.41;68.75;100685.98;1722067;83;27477;-62
2021/08/07 05:30:06;;;;;;;8.83;2.00;;;;;;;18.49;68.75;100676.02;1748869;80;25859;-61
2021/08/07 05:32:34;;;;;;;5.87;2.02;;;;;;;18.57;68.77;100674.53;1772209;80;25715;-62
2021/08/07 05:35:01;;;;;;;11.70;2.40;;;;;;;18.64;68.63;100671.89;1772534;80;25810;-62
2021/08/07 05:37:28;;;;;;;13.32;2.65;;;;;;;18.69;68.56;100677.60;1772141;80;26425;-62
2021/08/07 05:39:58;;;;;;;4.15;2.00;;;;;;;18.73;68.47;100682.47;1772535;80;27455;-62
2021/08/07 05:42:25;;;;;;;9.70;2.25;;;;;;;18.77;68.42;100680.20;1771874;80;25728;-62
2021/08/07 05:44:52;;;;;;;9.28;2.35;;;;;;;18.80;68.35;100676.24;1772284;80;25649;-62
2021/08/07 05:47:19;;;;;;;9.43;1.98;;;;;;;18.87;68.52;100675.28;1770049;80;25811;-62
2021/08/07 05:49:48;;;;;;;7.25;2.12;;;;;;;18.95;68.59;100683.91;1736503;82;26318;-62
2021/08/07 05:52:15;;;;;;;11.73;2.00;;;;;;;19.02;68.37;100690.26;1736541;82;27707;-62
2021/08/07 05:54:42;;;;;;;4.78;1.80;;;;;;;19.10;68.21;100691.17;1736854;82;25826;-62
2021/08/07 05:57:10;;;;;;;6.95;2.00;;;;;;;19.14;67.46;100697.93;1766817;80;25454;-62
2021/08/07 05:59:37;;;;;;;6.72;2.33;;;;;;;19.15;66.75;100702.31;1772596;80;25816;-62
2021/08/07 06:02:05;;;;;;;8.05;2.05;;;;;;;19.19;65.95;100699.01;1772088;80;25760;-62
2021/08/07 06:04:33;;;;;;;4.70;2.15;;;;;;;19.22;65.95;100702.72;1772381;80;27441;-62
2021/08/07 06:07:03;;;;;;;7.15;2.55;;;;;;;19.28;65.88;100705.19;1771917;80;25754;-62
2021/08/07 06:09:30;;;;;;;5.87;2.72;;;;;;;19.32;65.80;100702.38;1772356;80;25696;-62
2021/08/07 06:11:57;;;;;;;5.05;2.40;;;;;;;19.34;65.33;100700.84;1772295;80;25861;-62
2021/08/07 06:14:24;;;;;;;6.35;2.35;;;;;;;19.37;64.87;100699.92;1772005;80;25822;-62
2021/08/07 06:16:52;;;;;;;6.80;2.10;;;;;;;19.39;63.84;100699.72;1712864;83;27504;-62
2021/08/07 06:19:19;;;;;;;16.85;3.05;;;;;;;19.45;64.34;100696.23;1712475;83;26311;-62
2021/08/07 06:21:47;;;;;;;6.45;2.98;;;;;;;19.51;64.21;100704.11;1713489;83;25800;-61
2021/08/07 06:24:16;;;;;;;6.10;2.08;;;;;;;19.55;63.81;100704.89;1673352;82;27016;-61
2021/08/07 06:26:44;;;;;;;4.90;1.60;;;;;;;19.61;63.27;100705.16;1712591;83;25712;-62
2021/08/07 06:29:11;;;;;;;7.53;2.02;;;;;;;19.64;63.06;100709.70;1712784;83;27880;-62
2021/08/07 06:31:39;;;;;;;9.35;1.98;;;;;;;19.68;62.19;100713.70;1712703;82;25739;-62
2021/08/07 06:34:07;;;;;;;8.58;1.70;;;;;;;19.70;61.30;100712.98;1712961;83;25822;-62
2021/08/07 06:36:36;;;;;;;7.72;2.00;;;;;;;19.75;60.90;100714.30;1712328;82;26624;-62
2021/08/07 06:39:05;;;;;;;3.40;1.75;;;;;;;19.79;61.35;100715.56;1712710;82;25633;-61
2021/08/07 06:41:33;;;;;;;4.78;1.67;;;;;;;19.81;60.13;100715.69;1712674;83;27525;-61
2021/08/07 06:44:01;;;;;;;8.93;1.90;;;;;;;19.86;60.14;100712.39;1709491;83;25666;-61
2021/08/07 06:46:30;;;;;;;8.05;1.87;;;;;;;19.90;58.14;100713.69;1712052;83;25854;-61
2021/08/07 06:48:57;;;;;;;9.23;1.72;;;;;;;19.94;58.55;100705.44;1713149;83;26606;-61
2021/08/07 06:51:24;;;;;;;6.78;1.80;;;;;;;19.97;58.27;100702.83;1712869;83;25872;-61
2021/08/07 06:53:51;;;;;;;3.77;1.47;;;;;;;20.04;57.90;100705.61;1710858;82;27456;-62
2021/08/07 06:56:20;;;;;;;6.08;1.47;;;;;;;20.07;57.63;100696.48;1772462;80;25893;-62
2021/08/07 06:58:47;;;;;;;5.80;1.65;;;;;;;20.10;56.64;100703.42;1772581;80;25479;-62
2021/08/07 07:01:14;;;;;;;3.60;1.80;;;;;;;20.09;56.83;100709.39;1772373;80;25870;-62
2021/08/07 07:03:42;;;;;;;6.90;2.10;;;;;;;20.14;57.04;100706.06;1772285;80;25859;-66
2021/08/07 07:06:09;;;;;;;6.05;2.15;;;;;;;20.17;57.37;100718.78;1772229;80;26740;-62
2021/08/07 07:08:37;;;;;;;12.03;3.15;;;;;;;20.27;56.25;100716.21;1771973;80;26059;-63
2021/08/07 07:11:04;;;;;;;2.40;1.40;;;;;;;20.37;55.05;100721.33;1771997;80;25672;-62
2021/08/07 07:13:31;;;;;;;5.97;1.95;;;;;;;20.50;52.13;100717.27;1772548;80;25765;-62
2021/08/07 07:15:59;;;;;;;2.83;1.65;;;;;;;20.58;53.01;100720.37;1765258;80;25903;-62
2021/08/07 07:18:26;;;;;;;6.55;1.67;;;;;;;20.63;53.89;100726.91;1712520;83;27524;-63
2021/08/07 07:20:53;;;;;;;2.75;1.47;;;;;;;20.68;53.21;100724.07;1704651;84;26131;-62
2021/08/07 07:23:21;;;;;;;6.83;1.42;;;;;;;20.70;53.61;100735.15;1704401;82;25860;-62
2021/08/07 07:25:51;;;;;;;5.67;1.50;;;;;;;20.72;52.39;100735.76;1681927;85;26185;-62
2021/08/07 07:28:28;;;;;;;2.35;1.42;;;;;;;20.82;50.96;100739.52;1681560;85;25753;-66
2021/08/07 07:31:01;;;;;;;3.58;1.20;;;;;;;20.85;51.31;100736.36;1677699;84;26420;-61
2021/08/07 07:33:29;;;;;;;10.23;1.77;;;;;;;20.94;50.34;100734.30;1681563;84;25862;-61
2021/08/07 07:35:57;;;;;;;5.17;1.45;;;;;;;21.01;50.97;100734.33;1681971;84;25791;-61
2021/08/07 07:38:25;;;;;;;9.43;1.80;;;;;;;21.07;51.17;100736.22;1701457;82;25789;-62
2021/08/07 07:40:54;;;;;;;4.28;1.50;;;;;;;21.14;51.40;100734.88;1717046;83;25744;-61
2021/08/07 07:43:33;;;;;;;2.87;1.62;;;;;;;21.16;50.92;100747.30;1716136;83;27583;-65
2021/08/07 07:46:05;;;;;;;3.52;1.70;;;;;;;21.22;50.56;100742.89;1689549;83;25909;-61
2021/08/07 07:48:32;;;;;;;7.42;1.35;;;;;;;21.27;49.58;100749.94;1716860;83;25853;-62
2021/08/07 07:50:59;;;;;;;1.92;1.52;;;;;;;21.26;49.77;100746.38;1716994;83;25848;-62
2021/08/07 07:53:37;;;;;;;11.18;1.60;;;;;;;21.35;49.92;100753.84;1697168;83;25779;-64
2021/08/07 07:56:11;;;;;;;5.92;2.02;;;;;;;21.42;49.86;100760.70;1662946;84;25961;-62
2021/08/07 07:58:39;;;;;;;4.92;1.62;;;;;;;21.52;49.09;100761.64;1689783;84;25670;-62
2021/08/07 08:01:07;;;;;;;1.98;1.30;;;;;;;21.69;49.01;100762.12;1668667;84;25744;-61
2021/08/07 08:03:34;;;;;;;1.90;1.47;;;;;;;21.82;48.94;100764.88;1689677;84;25796;-62
2021/08/07 08:06:05;;;;;;;8.05;3.17;;;;;;;21.86;48.55;100764.75;1667480;84;26295;-64
2021/08/07 08:08:38;;;;;;;12.23;6.22;;;;;;;21.88;48.39;100765.89;1715038;83;27755;-66
2021/08/07 08:11:06;;;;;;;7.70;4.10;;;;;;;21.92;47.66;100770.45;1707915;82;25884;-62
2021/08/07 08:13:34;;;;;;;16.35;8.55;;;;;;;21.94;47.48;100766.44;1673475;84;25835;-62
2021/08/07 08:16:01;;;;;;;14.40;6.90;;;;;;;22.09;47.07;100775.80;1699002;83;25794;-62
2021/08/07 08:18:31;;;;;;;10.23;4.87;;;;;;;22.21;46.30;100762.29;1675931;83;26038;-62
2021/08/07 08:21:04;;;;;;;10.98;5.45;;;;;;;22.37;47.24;100769.19;1695366;83;26072;-62
2021/08/07 08:23:32;;;;;;;14.10;3.10;;;;;;;22.55;46.85;100767.18;1633228;86;25879;-62
2021/08/07 08:26:02;;;;;;;5.70;2.00;;;;;;;22.71;45.26;100761.75;1654467;86;25836;-62
2021/08/07 08:28:29;;;;;;;11.50;6.33;;;;;;;22.79;44.87;100762.87;1654573;85;27816;-62
2021/08/07 08:30:57;;;;;;;14.25;4.70;;;;;;;22.87;45.71;100771.37;1665451;84;25834;-62
2021/08/07 08:33:26;;;;;;;3.05;1.75;;;;;;;23.02;43.65;100773.83;1706407;83;27502;-62
2021/08/07 08:35:53;;;;;;;5.95;3.37;;;;;;;23.03;43.71;100776.06;1714726;83;25483;-62
2021/08/07 08:38:21;;;;;;;8.58;2.47;;;;;;;23.07;43.81;100776.78;1714829;82;25793;-62
2021/08/07 08:40:48;;;;;;;14.90;2.55;;;;;;;23.18;44.10;100769.77;1725627;82;26520;-62
2021/08/07 08:43:16;;;;;;;4.10;1.67;;;;;;;23.32;44.80;100771.05;1736961;81;26419;-62
2021/08/07 08:45:45;;;;;;;2.77;1.67;;;;;;;23.40;44.24;100759.80;1737341;82;27567;-62
2021/08/07 08:48:16;;;;;;;4.45;1.72;;;;;;;23.44;43.84;100752.27;1737281;82;26482;-62
2021/08/07 08:50:46;;;;;;;3.80;1.42;;;;;;;23.56;43.25;100749.67;1737296;82;25716;-62
2021/08/07 08:53:13;;;;;;;5.97;1.22;;;;;;;23.73;41.35;100740.33;1737297;82;25760;-62
2021/08/07 08:55:41;;;;;;;4.47;1.50;;;;;;;23.83;41.71;100737.09;1724910;82;25728;-62
2021/08/07 08:58:08;;;;;;;4.33;1.50;;;;;;;23.97;41.58;100726.84;1715032;83;28293;-62
2021/08/07 09:00:35;;;;;;;3.60;1.02;;;;;;;24.12;41.05;100737.45;1707931;82;26536;-62
2021/08/07 09:03:03;;;;;;;3.58;1.20;;;;;;;24.14;41.48;100731.20;1680509;85;26568;-62
2021/08/07 09:05:31;;;;;;;3.55;1.40;;;;;;;24.22;40.62;100736.39;1677860;85;25791;-62
2021/08/07 09:07:59;;;;;;;7.03;2.10;;;;;;;24.33;40.52;100741.69;1671509;85;25744;-62
2021/08/07 09:10:26;;;;;;;5.95;3.05;;;;;;;24.48;41.14;100734.95;1692097;83;27482;-62
2021/08/07 09:12:58;;;;;;;2.80;1.40;;;;;;;24.71;40.87;100745.80;1714189;83;25866;-62
2021/08/07 09:15:39;;;;;;;7.12;1.30;;;;;;;24.82;40.18;100748.63;1700308;83;25823;-63
2021/08/07 09:18:24;;;;;;;7.90;2.15;;;;;;;25.00;40.69;100741.41;1705249;83;26562;-61
2021/08/07 09:21:13;;;;;;;5.03;1.75;;;;;;;25.26;40.41;100737.96;1679105;85;26003;-61
2021/08/07 09:23:42;;;;;;;2.92;1.70;;;;;;;25.52;39.76;100737.27;1690251;83;27460;-61
2021/08/07 09:26:22;;;;;;;4.33;1.52;;;;;;;25.80;39.67;100740.70;1766410;80;25779;-61
2021/08/07 09:28:54;;;;;;;3.33;2.37;;;;;;;26.05;38.37;100739.62;1767151;81;25677;-61
2021/08/07 09:31:25;;;;;;;5.45;3.25;;;;;;;26.52;38.40;100740.97;1767254;80;25803;-62
2021/08/07 09:34:19;;;;;;;3.08;1.77;;;;;;;27.09;37.01;100753.16;1767288;81;25898;-62
2021/08/07 09:36:55;;;;;;;6.92;1.67;;;;;;;27.46;37.06;100761.05;1760624;81;27622;-62
2021/08/07 09:39:40;;;;;;;3.15;2.00;;;;;;;28.10;36.65;100767.33;1765816;81;25795;-61
2021/08/07 09:42:18;;;;;;;4.05;1.37;;;;;;;28.54;35.14;100757.69;1766363;81;25749;-62
2021/08/07 09:44:47;;;;;;;4.78;1.30;;;;;;;29.05;32.60;100750.56;1767106;80;25833;-61
2021/08/07 09:47:17;;;;;;;2.85;1.30;;;;;;;29.41;32.32;100741.78;1765880;80;25876;-62
2021/08/07 09:49:47;;;;;;;4.50;1.20;;;;;;;29.75;32.29;100755.92;1697368;83;27449;-63
2021/08/07 09:52:17;;;;;;;3.77;1.60;;;;;;;29.87;32.23;100758.50;1694788;83;25817;-63
2021/08/07 09:54:47;;;;;;;9.95;1.50;;;;;;;30.29;30.03;100750.77;1695054;84;25723;-63
2021/08/07 09:57:28;;;;;;;3.98;1.10;;;;;;;30.41;30.93;100744.99;1697619;82;25791;-63
2021/08/07 09:59:56;;;;;;;4.60;1.10;;;;;;;30.54;30.45;100744.52;1684957;83;25915;-63
2021/08/07 10:02:31;;;;;;;1.72;0.90;;;;;;;30.47;29.60;100744.47;1767223;81;27456;-63
2021/08/07 10:05:00;;;;;;;13.25;1.60;;;;;;;30.85;29.80;100743.24;1766960;80;25842;-63
2021/08/07 10:07:28;;;;;;;3.72;1.12;;;;;;;31.49;29.36;100743.92;1766852;80;25814;-63
2021/08/07 10:09:59;;;;;;;;;;;;;;;32.05;28.87;100741.38;1769099;80;26348;-63
2021/08/07 10:12:26;;;;;;;8.78;1.30;;;;;;;32.44;27.04;100739.34;1766828;81;25658;-63
2021/08/07 10:15:08;;;;;;;4.20;1.30;;;;;;;32.36;28.12;100735.77;1760709;81;27607;-63
2021/08/07 10:17:36;;;;;;;2.92;1.12;;;;;;;32.72;28.30;100734.20;1759139;80;25811;-64
2021/08/07 10:20:05;;;;;;;3.22;1.22;;;;;;;33.07;26.67;100731.78;1720063;82;25748;-62
2021/08/07 10:22:35;;;;;;;4.80;1.37;;;;;;;33.01;25.58;100721.80;1670727;83;25833;-62
2021/08/07 10:25:06;;;;;;;2.98;1.47;;;;;;;33.34;26.97;100729.68;1701509;83;25812;-63
2021/08/07 10:27:35;;;;;;;9.25;1.45;;;;;;;33.96;25.67;100733.31;1730413;82;27443;-63
2021/08/07 10:30:06;;;;;;;9.53;1.80;;;;;;;34.35;24.54;100737.88;1729169;82;25851;-63
2021/08/07 10:32:40;;;;;;;2.47;1.30;;;;;;;34.58;25.08;100731.21;1665859;84;25840;-63
2021/08/07 10:35:11;;;;;;;3.17;0.90;;;;;;;34.90;23.41;100727.72;1679491;85;25750;-62
2021/08/07 10:37:40;;;;;;;2.42;1.05;;;;;;;34.84;24.51;100721.08;1683313;84;25483;-63
2021/08/07 10:40:10;;;;;;;1.40;0.95;;;;;;;35.10;23.00;100715.94;1718913;83;28278;-63
2021/08/07 10:42:38;;;;;;;11.10;1.30;;;;;;;35.33;23.49;100723.95;1734429;80;25853;-63
2021/08/07 10:45:08;;;;;;;3.70;0.95;;;;;;;35.81;21.99;100713.09;1774710;80;25724;-63
2021/08/07 10:47:41;;;;;;;3.58;1.30;;;;;;;35.79;22.91;100717.31;1766373;80;25775;-63
2021/08/07 10:50:34;;;;;;;1.67;1.00;;;;;;;36.09;20.79;100712.30;1761996;81;25738;-63
2021/08/07 10:53:09;;;;;;;5.12;1.00;;;;;;;35.73;21.62;100718.83;1690579;84;28210;-63
2021/08/07 10:55:54;;;;;;;2.77;1.05;;;;;;;35.92;21.05;100703.95;1663808;83;25551;-63
2021/08/07 10:58:46;;;;;;;5.42;1.42;;;;;;;36.22;21.36;100705.05;1694458;84;25701;-64
2021/08/07 11:01:28;;;;;;;7.10;1.43;;;;;;;36.41;21.06;100699.34;1715047;80;25823;-64
2021/08/07 11:04:07;;;;;;;1.32;1.10;;;;;;;36.46;19.87;100697.26;1764050;81;25796;-64
2021/08/07 11:06:48;;;;;;;1.42;1.02;;;;;;;36.54;20.54;100700.45;1764555;80;27196;-64
2021/08/07 11:09:29;;;;;;;2.12;0.85;;;;;;;36.83;20.65;100704.30;1765193;80;26225;-64
2021/08/07 11:12:16;;;;;;;5.15;1.32;;;;;;;36.90;19.49;100697.70;1766815;81;25789;-65
2021/08/07 11:14:56;;;;;;;1.27;1.00;;;;;;;37.01;20.28;100700.27;1703446;82;26160;-63
2021/08/07 11:17:30;;;;;;;3.00;1.17;;;;;;;37.40;19.26;100699.59;1706180;82;25971;-63
2021/08/07 11:20:36;;;;;;;2.98;1.30;;;;;;;37.15;19.87;100698.81;1704986;83;27468;-63
2021/08/07 11:23:07;;;;;;;7.22;1.35;;;;;;;37.65;20.41;100702.05;1689001;84;25863;-63
2021/08/07 11:25:54;;;;;;;5.42;1.25;;;;;;;38.28;19.93;100694.37;1717399;82;25939;-63
2021/08/07 11:28:21;;;;;;;2.90;1.32;;;;;;;38.61;19.26;100694.55;1719924;81;25621;-63
2021/08/07 11:30:53;;;;;;;2.60;1.27;;;;;;;39.13;19.69;100695.16;1765746;81;25812;-64
2021/08/07 11:33:23;;;;;;;2.72;1.15;;;;;;;39.39;19.57;100695.72;1755799;81;27486;-64
2021/08/07 11:36:01;;;;;;;3.10;1.30;;;;;;;39.97;17.81;100692.55;1766697;81;25746;-64
2021/08/07 11:38:28;;;;;;;2.15;0.98;;;;;;;39.92;17.29;100686.53;1766549;81;25755;-64
2021/08/07 11:41:06;;;;;;;4.30;1.30;;;;;;;39.53;18.18;100687.89;1767019;81;25793;-64
2021/08/07 11:43:44;;;;;;;3.35;1.05;;;;;;;39.62;18.15;100687.03;1742847;81;25983;-63
2021/08/07 11:46:16;;;;;;;2.08;1.00;;;;;;;40.08;17.30;100681.75;1741078;81;28208;-64